Time;durP1;ratioP1;P1;durP2;ratioP2;P2;SDS_P1;SDS_P2;PMS_P1;PMS_P2;Temp;Humidity;BMP_temperature;BMP_pressure;BME280_temperature;BME280_humidity;BME280_pressure;Samples;Min_cycle;Max_cycle;Signal;HPM_P1;HPM_P2
2023/12/22 00:02:25;;;;;;;3.70;1.15;;;10.70;67.90;12.20;99977.00;;;;5007635;28;20582;-77
2023/12/22 00:04:53;;;;;;;4.57;0.70;;;10.70;67.40;12.10;99987.00;;;;5010679;28;20280;-77
2023/12/22 00:07:21;;;;;;;3.22;0.82;;;10.70;67.40;12.10;99994.00;;;;5008951;28;20283;-77
2023/12/22 00:09:48;;;;;;;2.05;0.65;;;10.70;67.40;12.10;99998.00;;;;5007996;28;20570;-77
2023/12/22 00:12:17;;;;;;;4.15;0.93;;;10.80;67.40;12.10;99997.00;;;;5000610;28;20639;-77
2023/12/22 00:14:45;;;;;;;2.45;0.77;;;10.70;67.20;12.10;100005.00;;;;5007860;28;20197;-78
2023/12/22 00:17:12;;;;;;;4.05;0.70;;;10.80;67.40;12.20;100017.00;;;;5009224;28;20212;-77
2023/12/22 00:19:40;;;;;;;4.45;1.13;;;10.80;67.40;12.20;100024.00;;;;5009391;28;20247;-77
2023/12/22 00:22:07;;;;;;;4.85;0.75;;;10.80;67.50;12.20;100043.00;;;;5008328;28;20205;-77
2023/12/22 00:24:35;;;;;;;6.20;1.10;;;10.80;67.50;12.20;100058.00;;;;5008954;28;20287;-78
2023/12/22 00:27:03;;;;;;;6.65;0.80;;;10.80;67.50;12.20;100053.00;;;;5013395;28;20228;-77
2023/12/22 00:29:35;;;;;;;2.90;0.55;;;10.80;67.30;12.20;100050.00;;;;5026275;28;20204;-77
2023/12/22 00:32:03;;;;;;;5.85;1.20;;;10.80;67.40;12.20;100050.00;;;;5008096;28;20236;-77
2023/12/22 00:34:30;;;;;;;3.90;0.70;;;10.80;67.40;12.20;100085.00;;;;5008704;28;20291;-78
2023/12/22 00:36:58;;;;;;;4.93;0.60;;;10.80;67.00;12.10;100075.00;;;;5015973;28;20678;-77
2023/12/22 00:39:25;;;;;;;1.75;0.35;;;10.80;66.70;12.00;100062.00;;;;5011552;28;20232;-77
2023/12/22 00:41:53;;;;;;;4.38;0.52;;;10.70;66.50;11.90;100070.00;;;;5008854;28;20706;-77
2023/12/22 00:44:20;;;;;;;2.22;0.40;;;10.70;66.30;11.90;100073.00;;;;5009548;28;20208;-78
2023/12/22 00:46:49;;;;;;;2.05;0.50;;;10.60;66.30;11.80;100061.00;;;;5008444;28;20641;-78
2023/12/22 00:49:18;;;;;;;1.88;0.63;;;10.50;66.30;11.80;100050.00;;;;5007776;28;20737;-77
2023/12/22 00:51:45;;;;;;;2.53;0.50;;;10.50;66.40;11.70;100047.00;;;;5009162;28;20267;-77
2023/12/22 00:54:13;;;;;;;5.18;0.47;;;10.40;66.40;11.60;100064.00;;;;5014616;28;20196;-78
2023/12/22 00:56:40;;;;;;;1.50;0.30;;;10.30;66.50;11.60;100049.00;;;;5010534;28;20578;-77
2023/12/22 00:59:08;;;;;;;1.42;0.32;;;10.30;66.70;11.50;100061.00;;;;5008975;28;20232;-78
2023/12/22 01:01:35;;;;;;;2.30;0.32;;;10.20;66.80;11.50;100068.00;;;;5016630;28;20254;-78
2023/12/22 01:04:05;;;;;;;1.15;0.20;;;10.10;66.90;11.40;100085.00;;;;5011141;28;20259;-79
2023/12/22 01:06:32;;;;;;;3.80;0.57;;;10.10;67.10;11.40;100085.00;;;;5007704;28;20316;-79
2023/12/22 01:08:59;;;;;;;3.80;0.63;;;10.00;67.30;11.40;100080.00;;;;5007130;28;20228;-78
2023/12/22 01:11:26;;;;;;;3.63;0.68;;;10.00;67.40;11.40;100104.00;;;;5008618;28;20559;-78
2023/12/22 01:13:54;;;;;;;5.65;0.70;;;10.00;67.70;11.40;100105.00;;;;5008339;28;20204;-78
2023/12/22 01:16:22;;;;;;;3.58;0.80;;;10.00;67.90;11.40;100119.00;;;;5007817;28;20278;-78
2023/12/22 01:18:50;;;;;;;7.00;1.25;;;9.90;68.10;11.40;100094.00;;;;5009451;28;20196;-78
2023/12/22 01:21:19;;;;;;;4.97;1.55;;;9.90;68.30;11.30;100097.00;;;;5012497;28;20654;-78
2023/12/22 01:23:46;;;;;;;3.30;0.73;;;9.90;68.50;11.30;100100.00;;;;5018716;28;20220;-78
2023/12/22 01:26:14;;;;;;;4.45;0.77;;;9.90;68.40;11.30;100094.00;;;;5007365;28;20229;-78
2023/12/22 01:28:41;;;;;;;3.92;0.70;;;9.90;68.60;11.30;100068.00;;;;5008409;28;20193;-78
2023/12/22 01:31:09;;;;;;;5.00;0.95;;;9.90;68.70;11.30;100091.00;;;;5011331;28;20240;-79
2023/12/22 01:33:36;;;;;;;4.80;0.90;;;9.90;68.70;11.30;100090.00;;;;5008182;28;20208;-79
2023/12/22 01:36:05;;;;;;;4.15;0.85;;;9.80;68.60;11.30;100085.00;;;;5007967;28;20201;-78
2023/12/22 01:38:34;;;;;;;5.05;0.35;;;9.90;68.70;11.30;100081.00;;;;5008527;28;20817;-79
2023/12/22 01:41:02;;;;;;;2.53;0.80;;;9.90;69.60;11.40;100093.00;;;;5010736;28;20511;-79
2023/12/22 01:43:28;;;;;;;1.70;0.63;;;9.90;69.00;11.40;100084.00;;;;5023845;28;20756;-79
2023/12/22 01:45:58;;;;;;;2.58;0.65;;;9.90;69.00;11.40;100084.00;;;;5006926;28;20220;-78
2023/12/22 01:48:27;;;;;;;7.03;1.15;;;10.00;69.20;11.50;100080.00;;;;5008211;28;20193;-79
2023/12/22 01:50:56;;;;;;;5.70;1.15;;;9.90;69.20;11.50;100081.00;;;;5008661;28;20205;-79
2023/12/22 01:53:26;;;;;;;5.55;1.42;;;10.00;69.30;11.50;100083.00;;;;5027530;28;20193;-79
2023/12/22 01:55:56;;;;;;;4.75;0.93;;;10.00;69.30;11.50;100065.00;;;;5005733;28;20197;-78
2023/12/22 01:58:25;;;;;;;4.53;1.08;;;10.00;69.30;11.60;100074.00;;;;5008196;28;20671;-79
2023/12/22 02:00:54;;;;;;;4.20;0.70;;;10.00;69.30;11.60;100069.00;;;;5007502;28;20224;-79
2023/12/22 02:03:23;;;;;;;3.75;0.73;;;10.00;69.30;11.60;100069.00;;;;5014388;28;20659;-79
2023/12/22 02:05:51;;;;;;;6.00;1.42;;;10.10;69.30;11.60;100084.00;;;;5007833;28;20310;-79
2023/12/22 02:08:21;;;;;;;3.92;0.88;;;10.10;69.40;11.60;100082.00;;;;5007367;28;20271;-78
2023/12/22 02:10:48;;;;;;;5.63;1.75;;;10.10;69.30;11.70;100077.00;;;;5018498;28;20579;-79
2023/12/22 02:13:17;;;;;;;5.50;1.50;;;10.10;69.30;11.60;100081.00;;;;5010853;28;20607;-79
2023/12/22 02:15:46;;;;;;;5.82;1.02;;;10.20;69.20;11.60;100074.00;;;;5005427;28;20253;-79
2023/12/22 02:18:22;;;;;;;1.63;0.47;;;10.20;69.20;11.60;100068.00;;;;5007049;28;20671;-79
2023/12/22 02:20:50;;;;;;;5.40;1.20;;;10.20;69.10;11.60;100073.00;;;;5014384;28;20719;-79
2023/12/22 02:23:19;;;;;;;7.45;1.60;;;10.20;69.00;11.60;100070.00;;;;5018113;28;20239;-79
2023/12/22 02:25:46;;;;;;;3.60;0.75;;;10.20;69.00;11.60;100062.00;;;;5005123;28;20529;-79
2023/12/22 02:28:20;;;;;;;10.63;1.42;;;10.10;68.90;11.60;100051.00;;;;5007524;28;20512;-78
2023/12/22 02:31:00;;;;;;;7.72;1.30;;;10.10;68.90;11.50;100038.00;;;;5016341;28;20649;-79
2023/12/22 02:33:30;;;;;;;9.32;1.40;;;10.10;68.90;11.60;100040.00;;;;5006539;28;20193;-79
2023/12/22 02:36:04;;;;;;;3.45;0.60;;;10.10;68.80;11.60;100052.00;;;;5007464;28;20612;-79
2023/12/22 02:38:35;;;;;;;5.78;2.00;;;10.10;68.80;11.60;100049.00;;;;5010722;28;20591;-79
2023/12/22 02:41:03;;;;;;;11.15;1.50;;;10.10;68.70;11.60;100042.00;;;;5010784;28;20632;-79
2023/12/22 02:43:30;;;;;;;8.48;1.27;;;10.10;68.70;11.60;100032.00;;;;5010020;28;20193;-79
2023/12/22 02:45:57;;;;;;;4.57;1.75;;;10.10;68.60;11.60;100037.00;;;;5010541;28;20197;-79
2023/12/22 02:48:24;;;;;;;9.07;2.10;;;10.10;68.60;11.60;100042.00;;;;5011269;28;20562;-79
2023/12/22 02:50:51;;;;;;;12.32;2.00;;;10.10;68.60;11.60;100034.00;;;;5013575;28;20196;-78
2023/12/22 02:53:18;;;;;;;7.20;1.40;;;10.10;68.60;11.60;100037.00;;;;5010534;28;20212;-79
2023/12/22 02:55:47;;;;;;;7.47;1.67;;;10.10;68.60;11.60;100033.00;;;;5009690;28;20211;-78
2023/12/22 02:58:14;;;;;;;6.13;1.20;;;10.10;68.60;11.70;100038.00;;;;5010861;28;20609;-79
2023/12/22 03:00:41;;;;;;;6.35;1.02;;;10.20;68.60;11.70;100053.00;;;;5011643;28;20212;-79
2023/12/22 03:03:08;;;;;;;12.35;1.60;;;10.20;69.10;11.70;100040.00;;;;5013921;28;20219;-78
2023/12/22 03:05:35;;;;;;;11.93;2.08;;;10.20;68.30;11.70;100036.00;;;;5009251;28;20193;-78
2023/12/22 03:08:01;;;;;;;5.88;1.20;;;10.20;68.10;11.70;100047.00;;;;5010432;28;20232;-78
2023/12/22 03:10:30;;;;;;;5.15;0.90;;;10.20;68.00;11.70;100036.00;;;;5009857;28;20567;-78
2023/12/22 03:12:59;;;;;;;5.38;1.05;;;10.30;68.00;11.70;100042.00;;;;5017624;28;20196;-78
2023/12/22 03:15:26;;;;;;;9.07;1.58;;;10.30;67.90;11.70;100049.00;;;;5009504;28;20645;-79
2023/12/22 03:17:53;;;;;;;9.40;1.40;;;10.30;67.90;11.70;100057.00;;;;5009511;28;20271;-78
2023/12/22 03:20:20;;;;;;;10.30;2.00;;;10.30;67.90;11.80;100057.00;;;;5010562;28;20216;-78
2023/12/22 03:22:47;;;;;;;9.40;1.73;;;10.40;67.80;11.80;100062.00;;;;5010562;28;20197;-78
2023/12/22 03:25:14;;;;;;;6.93;1.08;;;10.40;67.80;11.80;100063.00;;;;5011614;28;20668;-78
2023/12/22 03:27:41;;;;;;;5.50;0.88;;;10.40;67.90;11.90;100051.00;;;;5010456;28;20220;-78
2023/12/22 03:30:11;;;;;;;11.35;1.90;;;10.50;68.10;11.90;100052.00;;;;5010325;28;20197;-78
2023/12/22 03:32:38;;;;;;;5.85;1.20;;;10.50;68.00;11.90;100055.00;;;;5011423;28;20205;-79
2023/12/22 03:35:07;;;;;;;8.68;1.30;;;10.50;68.00;12.00;100052.00;;;;5014308;28;20201;-78
2023/12/22 03:37:34;;;;;;;12.20;2.40;;;10.50;68.00;12.00;100043.00;;;;5009717;28;20255;-78
2023/12/22 03:40:02;;;;;;;9.20;1.50;;;10.60;68.00;12.10;100051.00;;;;5010237;28;20263;-79
2023/12/22 03:42:29;;;;;;;4.53;1.80;;;10.60;68.00;12.10;100056.00;;;;5008822;28;20302;-78
2023/12/22 03:44:57;;;;;;;7.15;1.30;;;10.70;68.10;12.20;100056.00;;;;5009251;28;20667;-78
2023/12/22 03:47:26;;;;;;;7.97;1.65;;;10.70;68.10;12.20;100064.00;;;;5008908;28;20224;-78
2023/12/22 03:49:53;;;;;;;9.18;1.48;;;10.70;68.00;12.20;100039.00;;;;5010636;28;20197;-78
2023/12/22 03:52:20;;;;;;;6.25;1.52;;;10.80;68.10;12.30;100040.00;;;;5010354;28;20651;-79
2023/12/22 03:54:47;;;;;;;8.70;1.35;;;10.80;68.10;12.40;100052.00;;;;5008886;28;20208;-79
2023/12/22 03:57:14;;;;;;;4.18;1.13;;;10.90;68.10;12.40;100054.00;;;;5009982;28;20216;-78
2023/12/22 03:59:43;;;;;;;6.47;1.77;;;10.90;67.90;12.50;100054.00;;;;5009937;28;20648;-78
2023/12/22 04:02:10;;;;;;;10.73;2.10;;;11.00;67.80;12.50;100050.00;;;;5022125;28;20216;-78
2023/12/22 04:04:40;;;;;;;8.57;1.88;;;11.00;67.90;12.50;100078.00;;;;5017219;28;20569;-78
2023/12/22 04:07:07;;;;;;;12.38;1.75;;;11.10;67.90;12.60;100079.00;;;;5012669;28;20231;-78
2023/12/22 04:09:34;;;;;;;9.52;1.50;;;11.20;67.80;12.60;100084.00;;;;5010111;28;20207;-79
2023/12/22 04:12:01;;;;;;;8.52;1.65;;;11.20;67.70;12.70;100081.00;;;;5009928;28;20197;-79
2023/12/22 04:14:28;;;;;;;6.22;2.35;;;11.30;67.70;12.80;100088.00;;;;5009148;28;20201;-78
2023/12/22 04:16:55;;;;;;;6.25;1.80;;;11.30;67.60;12.80;100094.00;;;;5007614;28;20209;-79
2023/12/22 04:19:21;;;;;;;10.05;1.42;;;11.40;67.60;12.90;100091.00;;;;5010286;28;20531;-79
2023/12/22 04:21:50;;;;;;;6.72;1.50;;;11.40;67.40;12.90;100092.00;;;;5009633;28;20208;-79
2023/12/22 04:24:17;;;;;;;10.40;2.08;;;11.40;67.30;13.00;100092.00;;;;5008074;28;20211;-79
2023/12/22 04:26:44;;;;;;;8.10;1.63;;;11.50;67.20;13.00;100104.00;;;;5007296;28;20240;-79
2023/12/22 04:29:10;;;;;;;6.32;1.70;;;11.50;67.00;13.00;100120.00;;;;5007316;28;20559;-78
2023/12/22 04:31:37;;;;;;;7.25;1.55;;;11.50;67.50;13.00;100111.00;;;;5008244;28;20698;-79
2023/12/22 04:34:04;;;;;;;10.93;2.63;;;11.50;66.40;13.00;100101.00;;;;5012681;28;20208;-79
2023/12/22 04:36:31;;;;;;;6.10;1.52;;;11.60;66.30;13.00;100105.00;;;;5010026;28;20669;-79
2023/12/22 04:38:59;;;;;;;7.82;1.80;;;11.60;66.00;13.00;100097.00;;;;5007058;28;20197;-79
2023/12/22 04:41:26;;;;;;;8.93;1.58;;;11.60;65.80;13.10;100092.00;;;;4991931;28;20232;-79
2023/12/22 04:43:53;;;;;;;7.07;1.35;;;11.60;65.90;13.10;100089.00;;;;5006204;28;20686;-79
2023/12/22 04:46:20;;;;;;;10.77;2.03;;;11.60;65.20;13.10;100104.00;;;;5009804;28;20213;-79
2023/12/22 04:48:47;;;;;;;5.75;1.17;;;11.70;65.50;13.10;100090.00;;;;5010818;28;20586;-79
2023/12/22 04:51:14;;;;;;;8.80;1.55;;;11.70;65.20;13.10;100106.00;;;;5028921;28;20207;-79
2023/12/22 04:53:41;;;;;;;7.60;2.63;;;11.70;65.10;13.20;100106.00;;;;5023713;28;20690;-79
2023/12/22 04:56:09;;;;;;;9.02;1.55;;;11.70;65.10;13.20;100113.00;;;;5009581;28;20201;-79
2023/12/22 04:58:36;;;;;;;7.97;1.73;;;11.80;65.20;13.20;100112.00;;;;5010229;28;20220;-79
2023/12/22 05:01:03;;;;;;;9.55;1.63;;;11.80;64.80;13.20;100111.00;;;;5028198;28;20670;-79
2023/12/22 05:03:31;;;;;;;9.27;1.58;;;11.80;64.40;13.20;100106.00;;;;5025655;28;20689;-79
2023/12/22 05:05:58;;;;;;;7.50;1.55;;;11.80;64.60;13.20;100108.00;;;;5009190;28;20197;-79
2023/12/22 05:08:25;;;;;;;6.85;1.40;;;11.80;65.50;13.20;100109.00;;;;5006256;28;20232;-79
2023/12/22 05:10:51;;;;;;;7.00;1.23;;;11.80;64.90;13.20;100118.00;;;;5008976;28;20208;-78
2023/12/22 05:13:20;;;;;;;4.93;1.45;;;11.90;65.00;13.30;100104.00;;;;5007087;28;20613;-78
2023/12/22 05:15:47;;;;;;;5.28;1.05;;;11.90;64.70;13.30;100107.00;;;;5008436;28;20198;-78
2023/12/22 05:18:14;;;;;;;9.13;1.90;;;11.90;64.90;13.30;100100.00;;;;5008811;28;20671;-79
2023/12/22 05:20:41;;;;;;;7.85;2.08;;;11.90;64.90;13.30;100116.00;;;;5006966;28;20210;-79
2023/12/22 05:23:08;;;;;;;4.65;1.30;;;12.00;64.70;13.40;100115.00;;;;5008990;28;20189;-78
2023/12/22 05:25:35;;;;;;;8.10;1.70;;;12.00;64.80;13.40;100085.00;;;;5008567;28;20212;-79
2023/12/22 05:28:01;;;;;;;10.45;2.17;;;12.00;64.70;13.40;100089.00;;;;5007483;28;20232;-79
2023/12/22 05:30:30;;;;;;;6.43;0.90;;;12.00;64.70;13.40;100099.00;;;;5007704;28;20204;-78
2023/12/22 05:32:59;;;;;;;6.65;1.13;;;12.10;64.70;13.40;100098.00;;;;5008917;28;20196;-79
2023/12/22 05:35:26;;;;;;;12.05;2.05;;;12.00;64.90;13.40;100106.00;;;;5009372;28;20195;-79
2023/12/22 05:37:53;;;;;;;7.28;1.08;;;12.10;64.60;13.40;100092.00;;;;5006778;28;20201;-79
2023/12/22 05:40:20;;;;;;;7.95;2.00;;;12.10;64.80;13.50;100099.00;;;;5008388;28;20204;-79
2023/12/22 05:42:47;;;;;;;7.40;1.20;;;12.10;65.00;13.50;100092.00;;;;5008446;28;20189;-79
2023/12/22 05:45:15;;;;;;;5.75;0.80;;;12.10;64.90;13.50;100094.00;;;;5023513;28;20223;-80
2023/12/22 05:47:43;;;;;;;6.50;1.02;;;12.10;65.00;13.50;100086.00;;;;5015313;28;20237;-80
2023/12/22 05:50:12;;;;;;;6.22;1.13;;;12.20;65.00;13.50;100094.00;;;;5007610;28;20231;-79
2023/12/22 05:52:39;;;;;;;15.32;1.88;;;12.20;65.10;13.60;100099.00;;;;5008513;28;20228;-79
2023/12/22 05:55:08;;;;;;;4.03;1.02;;;12.20;65.20;13.50;100081.00;;;;5011078;28;20299;-79
2023/12/22 05:57:35;;;;;;;3.10;0.95;;;12.20;65.20;13.60;100097.00;;;;5007085;28;20193;-79
2023/12/22 06:00:04;;;;;;;7.03;1.00;;;12.20;65.90;13.60;100094.00;;;;5004320;28;20209;-79
2023/12/22 06:02:31;;;;;;;4.72;1.13;;;12.20;65.40;13.60;100099.00;;;;5003559;28;20209;-79
2023/12/22 06:04:59;;;;;;;5.93;1.42;;;12.20;65.40;13.60;100101.00;;;;5006994;28;20204;-79
2023/12/22 06:07:27;;;;;;;5.40;1.30;;;12.30;65.50;13.70;100107.00;;;;5004224;28;20826;-79
2023/12/22 06:09:54;;;;;;;6.10;1.40;;;12.30;65.40;13.70;100090.00;;;;5003684;28;20200;-79
2023/12/22 06:12:21;;;;;;;7.25;0.88;;;12.30;65.50;13.70;100092.00;;;;5007915;28;20197;-79
2023/12/22 06:14:48;;;;;;;11.43;1.23;;;12.30;65.50;13.80;100092.00;;;;5010703;28;20208;-80
2023/12/22 06:17:15;;;;;;;7.65;1.83;;;12.40;65.50;13.80;100076.00;;;;5009909;28;20204;-79
2023/12/22 06:19:42;;;;;;;4.93;1.40;;;12.40;65.50;13.80;100076.00;;;;5012398;28;20578;-80
2023/12/22 06:22:10;;;;;;;7.38;1.55;;;12.40;65.40;13.70;100092.00;;;;5009962;28;20193;-80
2023/12/22 06:24:37;;;;;;;6.20;1.13;;;12.40;65.40;13.70;100096.00;;;;5011919;28;20196;-80
2023/12/22 06:27:06;;;;;;;8.48;1.73;;;12.40;65.40;13.70;100110.00;;;;5010659;28;20208;-80
2023/12/22 06:29:34;;;;;;;2.35;0.85;;;12.40;65.40;13.80;100120.00;;;;5007968;28;20292;-80
2023/12/22 06:32:01;;;;;;;7.80;1.58;;;12.40;65.40;13.80;100118.00;;;;5011170;28;20631;-80
2023/12/22 06:34:27;;;;;;;12.18;1.95;;;12.40;65.60;13.80;100110.00;;;;5011892;28;20579;-80
2023/12/22 06:36:54;;;;;;;10.15;1.33;;;12.40;65.50;13.80;100112.00;;;;5011143;28;20197;-80
2023/12/22 06:39:23;;;;;;;10.10;1.90;;;12.50;65.70;13.90;100086.00;;;;5003701;28;20342;-80
2023/12/22 06:41:50;;;;;;;6.68;1.23;;;12.50;65.60;13.90;100095.00;;;;5011110;28;20233;-80
2023/12/22 06:44:17;;;;;;;5.28;1.65;;;12.50;65.50;13.90;100090.00;;;;5011124;28;20714;-80
2023/12/22 06:46:43;;;;;;;6.15;1.40;;;12.50;65.60;13.90;100089.00;;;;5008566;28;20211;-80
2023/12/22 06:49:10;;;;;;;4.43;1.23;;;12.50;65.60;13.90;100078.00;;;;5011339;28;20243;-79
2023/12/22 06:51:37;;;;;;;9.23;1.70;;;12.50;65.60;13.90;100094.00;;;;5010608;28;20204;-80
2023/12/22 06:54:05;;;;;;;11.68;2.63;;;12.50;65.60;13.90;100081.00;;;;5010813;28;20196;-80
2023/12/22 06:56:35;;;;;;;9.25;2.00;;;12.50;65.60;13.90;100092.00;;;;5009943;28;20212;-79
2023/12/22 06:59:02;;;;;;;7.95;2.45;;;12.60;65.70;13.90;100088.00;;;;5010701;28;20217;-79
2023/12/22 07:01:32;;;;;;;9.85;2.15;;;12.60;65.60;13.90;100095.00;;;;5011077;28;20225;-80
2023/12/22 07:04:01;;;;;;;9.13;1.80;;;12.60;65.60;14.00;100086.00;;;;5010294;28;20207;-79
2023/12/22 07:06:30;;;;;;;10.73;2.10;;;12.60;65.60;13.90;100088.00;;;;5010767;28;20243;-80
2023/12/22 07:09:17;;;;;;;10.75;2.22;;;12.60;65.60;14.00;100084.00;;;;5011052;28;20236;-80
2023/12/22 07:11:48;;;;;;;10.02;2.42;;;12.60;65.60;14.00;100088.00;;;;5020175;28;20788;-80
2023/12/22 07:14:17;;;;;;;14.20;2.65;;;12.70;65.70;14.00;100087.00;;;;5011271;28;20444;-77
2023/12/22 07:16:44;;;;;;;11.57;2.72;;;12.70;65.70;14.00;100088.00;;;;5007777;28;20514;-77
2023/12/22 07:19:13;;;;;;;15.55;3.70;;;12.70;65.40;14.00;100088.00;;;;5004463;28;20201;-79
2023/12/22 07:21:40;;;;;;;7.55;2.20;;;12.70;65.50;14.00;100083.00;;;;5010482;28;20236;-78
2023/12/22 07:24:08;;;;;;;10.52;2.45;;;12.70;65.50;14.00;100090.00;;;;5006908;28;20204;-78
2023/12/22 07:26:35;;;;;;;10.55;2.00;;;12.70;65.60;14.10;100091.00;;;;5009434;28;21212;-77
2023/12/22 07:29:03;;;;;;;11.32;2.47;;;12.70;65.50;14.10;100096.00;;;;5007707;28;20243;-78
2023/12/22 07:31:30;;;;;;;15.48;2.60;;;12.70;65.60;14.10;100097.00;;;;5006915;28;20205;-77
2023/12/22 07:33:57;;;;;;;16.90;3.05;;;12.80;65.50;14.10;100093.00;;;;5021156;28;20215;-78
2023/12/22 07:36:24;;;;;;;6.38;1.90;;;12.80;65.60;14.10;100098.00;;;;5014860;28;20193;-78
2023/12/22 07:38:51;;;;;;;18.85;3.33;;;12.80;65.60;14.20;100117.00;;;;5002614;28;20213;-77
2023/12/22 07:41:18;;;;;;;19.85;3.95;;;12.80;65.60;14.20;100098.00;;;;5019800;28;20240;-77
2023/12/22 07:43:45;;;;;;;16.23;3.20;;;12.80;65.60;14.10;100100.00;;;;5008064;28;20282;-77
2023/12/22 07:46:19;;;;;;;9.25;1.70;;;12.80;65.60;14.10;100098.00;;;;5019014;28;20772;-77
2023/12/22 07:48:46;;;;;;;9.02;2.38;;;12.80;65.50;14.10;100096.00;;;;5007006;28;20605;-77
2023/12/22 07:51:13;;;;;;;6.22;2.00;;;12.80;65.60;14.10;100087.00;;;;5017699;28;20204;-77
2023/12/22 07:53:40;;;;;;;5.88;1.55;;;12.80;65.60;14.10;100073.00;;;;5008469;28;20197;-77
2023/12/22 07:56:08;;;;;;;7.55;1.77;;;12.80;65.80;14.10;100078.00;;;;5014068;28;20585;-77
2023/12/22 07:58:35;;;;;;;8.73;2.70;;;12.80;65.90;14.10;100081.00;;;;5026113;28;20197;-78
2023/12/22 08:01:03;;;;;;;6.18;1.80;;;12.70;66.00;14.20;100096.00;;;;5011444;28;20211;-78
2023/12/22 08:03:31;;;;;;;11.60;1.95;;;12.80;66.20;14.20;100087.00;;;;5011818;28;20199;-78
2023/12/22 08:05:58;;;;;;;13.95;2.50;;;12.70;66.30;14.20;100089.00;;;;5011765;28;20189;-77
2023/12/22 08:08:25;;;;;;;12.98;2.42;;;12.70;66.40;14.20;100091.00;;;;5005560;28;20250;-78
2023/12/22 08:10:52;;;;;;;14.68;3.20;;;12.70;66.60;14.20;100101.00;;;;5008104;28;20288;-77
2023/12/22 08:13:19;;;;;;;14.82;2.90;;;12.70;66.60;14.20;100102.00;;;;5012054;28;20259;-77
2023/12/22 08:15:46;;;;;;;14.02;3.10;;;12.70;66.70;14.20;100097.00;;;;5013586;28;20212;-77
2023/12/22 08:18:13;;;;;;;10.70;2.33;;;12.80;66.90;14.20;100107.00;;;;5028573;28;20203;-78
2023/12/22 08:20:41;;;;;;;9.65;2.25;;;12.80;66.90;14.20;100109.00;;;;5015141;28;20587;-77
2023/12/22 08:23:08;;;;;;;7.45;1.73;;;12.80;66.90;14.20;100094.00;;;;5008319;28;20193;-77
2023/12/22 08:25:35;;;;;;;11.68;1.80;;;12.80;66.90;14.10;100108.00;;;;5004993;28;20729;-77
2023/12/22 08:28:02;;;;;;;10.77;2.08;;;12.80;66.90;14.10;100100.00;;;;5006673;28;20239;-78
2023/12/22 08:30:30;;;;;;;7.70;1.75;;;12.70;66.90;14.00;100101.00;;;;5014364;28;20193;-78
2023/12/22 08:32:57;;;;;;;6.55;1.25;;;12.70;67.00;13.90;100110.00;;;;5005832;28;20203;-78
2023/12/22 08:35:24;;;;;;;9.80;1.20;;;12.70;67.00;13.90;100092.00;;;;5005291;28;20563;-78
2023/12/22 08:37:52;;;;;;;7.85;1.23;;;12.70;67.00;13.80;100073.00;;;;5007382;28;20750;-78
2023/12/22 08:40:25;;;;;;;4.80;1.08;;;12.60;67.00;13.70;100080.00;;;;5006627;28;20201;-78
2023/12/22 08:42:54;;;;;;;6.50;1.00;;;12.60;67.20;13.70;100073.00;;;;5007143;28;20204;-80
2023/12/22 08:45:21;;;;;;;7.53;1.50;;;12.50;67.40;13.60;100078.00;;;;4990739;28;20193;-78
2023/12/22 08:47:48;;;;;;;6.28;1.05;;;12.50;67.50;13.60;100079.00;;;;5015481;28;20213;-78
2023/12/22 08:50:15;;;;;;;7.07;1.17;;;12.40;68.40;13.50;100074.00;;;;5009918;28;20282;-78
2023/12/22 08:52:42;;;;;;;4.45;1.23;;;12.40;68.00;13.50;100058.00;;;;5010516;28;20569;-78
2023/12/22 08:55:11;;;;;;;5.20;1.55;;;12.40;68.10;13.50;100045.00;;;;5012616;28;20201;-78
2023/12/22 08:57:38;;;;;;;4.55;1.55;;;12.40;68.30;13.50;100059.00;;;;5008850;28;20196;-78
2023/12/22 09:00:06;;;;;;;6.35;1.45;;;12.30;68.40;13.60;100080.00;;;;5009793;28;20200;-78
2023/12/22 09:02:33;;;;;;;5.28;1.23;;;12.30;68.70;13.60;100063.00;;;;5017426;28;20706;-78
2023/12/22 09:05:00;;;;;;;8.23;1.48;;;12.30;68.80;13.70;100061.00;;;;5008108;28;20490;-78
2023/12/22 09:07:27;;;;;;;6.63;1.23;;;12.40;69.10;13.70;100067.00;;;;5008275;28;20520;-77
2023/12/22 09:09:54;;;;;;;5.15;1.92;;;12.40;69.40;13.70;100088.00;;;;5017075;28;20275;-78
2023/12/22 09:12:22;;;;;;;4.82;1.10;;;12.40;69.70;13.70;100082.00;;;;5010234;28;20223;-78
2023/12/22 09:14:50;;;;;;;4.82;1.42;;;12.40;69.50;13.80;100095.00;;;;5008728;28;20193;-77
2023/12/22 09:17:17;;;;;;;6.50;0.93;;;12.40;69.50;13.80;100083.00;;;;5009381;28;20200;-77
2023/12/22 09:19:44;;;;;;;1.67;0.73;;;12.50;69.70;13.70;100065.00;;;;5008518;28;20212;-77
2023/12/22 09:22:12;;;;;;;2.92;1.15;;;12.40;69.30;13.70;100079.00;;;;5007544;28;20201;-78
2023/12/22 09:24:39;;;;;;;3.20;0.65;;;12.50;69.10;13.70;100064.00;;;;5009566;28;20209;-78
2023/12/22 09:27:06;;;;;;;5.55;1.02;;;12.40;68.90;13.70;100073.00;;;;5021277;28;20192;-78
2023/12/22 09:29:35;;;;;;;2.67;0.80;;;12.40;69.00;13.70;100065.00;;;;5007731;28;20738;-78
2023/12/22 09:32:02;;;;;;;3.92;1.00;;;12.40;69.90;13.70;100063.00;;;;4989009;28;20209;-78
2023/12/22 09:34:29;;;;;;;2.97;0.80;;;12.40;69.40;13.70;100068.00;;;;4989299;28;20213;-78
2023/12/22 09:36:57;;;;;;;3.35;0.70;;;12.40;69.70;13.80;100060.00;;;;4987846;28;20718;-78
2023/12/22 09:39:24;;;;;;;3.25;0.90;;;12.50;70.00;13.80;100068.00;;;;5004786;28;20196;-77
2023/12/22 09:41:54;;;;;;;3.60;0.90;;;12.50;70.10;13.90;100068.00;;;;5011517;28;20230;-77
2023/12/22 09:44:22;;;;;;;7.07;1.33;;;12.50;70.30;14.00;100063.00;;;;5007496;28;20255;-78
2023/12/22 09:46:52;;;;;;;5.78;1.05;;;12.50;70.40;14.00;100065.00;;;;5011598;28;20559;-78
2023/12/22 09:49:20;;;;;;;2.88;0.90;;;12.60;70.60;14.10;100051.00;;;;5017205;28;20223;-78
2023/12/22 09:51:49;;;;;;;4.20;1.13;;;12.60;70.70;14.10;100054.00;;;;5032539;28;20204;-78
2023/12/22 09:54:17;;;;;;;2.78;1.23;;;12.70;70.70;14.20;100065.00;;;;5021922;28;20204;-78
2023/12/22 09:56:47;;;;;;;4.20;0.55;;;12.70;70.90;14.20;100062.00;;;;5018057;28;20207;-78
2023/12/22 09:59:15;;;;;;;4.32;0.60;;;12.80;70.80;14.30;100063.00;;;;5026946;28;20212;-79
2023/12/22 10:01:46;;;;;;;7.28;0.80;;;12.80;70.80;14.30;100073.00;;;;5025702;28;20223;-78
2023/12/22 10:04:15;;;;;;;5.53;1.08;;;12.80;70.70;14.30;100065.00;;;;5012081;28;20521;-78
2023/12/22 10:06:42;;;;;;;4.20;1.02;;;12.90;70.90;14.40;100068.00;;;;5011896;28;20659;-77
2023/12/22 10:09:11;;;;;;;6.40;1.63;;;12.90;70.70;14.40;100049.00;;;;5017203;28;20220;-78
2023/12/22 10:11:40;;;;;;;4.82;0.85;;;12.90;71.40;14.40;100069.00;;;;5010176;28;20652;-77
2023/12/22 10:14:10;;;;;;;5.55;1.33;;;13.00;70.80;14.40;100056.00;;;;5026973;28;20201;-78
2023/12/22 10:16:38;;;;;;;3.03;0.77;;;13.00;70.60;14.50;100064.00;;;;5013414;28;20193;-77
2023/12/22 10:19:07;;;;;;;4.75;0.80;;;13.10;70.60;14.50;100078.00;;;;5010719;28;20197;-78
2023/12/22 10:21:36;;;;;;;5.32;0.90;;;13.10;70.60;14.60;100060.00;;;;5012390;28;20213;-78
2023/12/22 10:24:03;;;;;;;2.88;0.80;;;13.20;70.60;14.60;100064.00;;;;5020340;28;20204;-78
2023/12/22 10:26:30;;;;;;;3.15;0.85;;;13.20;70.50;14.70;100069.00;;;;5012104;28;20201;-78
2023/12/22 10:28:56;;;;;;;6.05;1.23;;;13.20;70.50;14.70;100068.00;;;;5018572;28;20219;-78
2023/12/22 10:31:25;;;;;;;2.88;0.80;;;13.30;70.50;14.70;100078.00;;;;5012786;28;20200;-78
2023/12/22 10:33:52;;;;;;;3.78;0.90;;;13.30;70.50;14.70;100090.00;;;;5011829;28;20228;-78
2023/12/22 10:36:19;;;;;;;5.63;0.77;;;13.30;70.40;14.80;100067.00;;;;5010783;28;20209;-77
2023/12/22 10:38:47;;;;;;;2.65;0.60;;;13.40;70.40;14.80;100067.00;;;;5030248;28;20318;-78
2023/12/22 10:41:15;;;;;;;2.20;0.68;;;13.40;70.30;14.80;100079.00;;;;5013220;28;20344;-78
2023/12/22 10:43:42;;;;;;;4.85;0.82;;;13.40;70.20;14.80;100084.00;;;;5011496;28;20577;-77
2023/12/22 10:46:10;;;;;;;5.00;1.15;;;13.50;70.20;14.90;100087.00;;;;5010941;28;20206;-77
2023/12/22 10:48:37;;;;;;;4.15;0.98;;;13.50;70.00;14.90;100092.00;;;;5009894;28;20748;-77
2023/12/22 10:51:11;;;;;;;2.53;0.75;;;13.50;69.90;14.80;100078.00;;;;5012334;28;20205;-77